createdAt,value
2022-12-17T00:00:49.175Z,101085.81
2022-12-17T00:05:52.814Z,101089.41
2022-12-17T00:10:58.927Z,101097.97
2022-12-17T00:16:00.402Z,101099.75
2022-12-17T00:21:02.460Z,101100.50
2022-12-17T00:26:04.048Z,101112.78
2022-12-17T00:31:05.783Z,101106.41
2022-12-17T00:36:07.573Z,101115.31
2022-12-17T00:41:09.107Z,101115.25
2022-12-17T00:46:11.293Z,101117.69
2022-12-17T00:51:12.787Z,101133.31
2022-12-17T00:56:14.471Z,101139.22
2022-12-17T01:01:16.164Z,101139.38
2022-12-17T01:06:17.788Z,101134.13
2022-12-17T01:11:19.311Z,101145.06
2022-12-17T01:16:20.903Z,101142.50
2022-12-17T01:21:22.544Z,101146.63
2022-12-17T01:26:24.102Z,101144.94
2022-12-17T01:31:29.065Z,101147.69
2022-12-17T01:36:33.131Z,101150.97
2022-12-17T01:41:34.613Z,101151.19
2022-12-17T01:46:40.681Z,101157.56
2022-12-17T01:51:42.470Z,101156.63
2022-12-17T01:56:44.881Z,101168.50
2022-12-17T02:01:46.722Z,101177.19
2022-12-17T02:07:01.705Z,101177.91
2022-12-17T02:12:12.452Z,101179.97
2022-12-17T02:17:25.361Z,101198.78
2022-12-17T02:22:39.608Z,101181.63
2022-12-17T02:27:41.193Z,101186.13
2022-12-17T02:32:46.144Z,101187.53
2022-12-17T02:37:48.653Z,101192.56
2022-12-17T02:42:50.386Z,101179.09
2022-12-17T02:47:52.362Z,101184.00
2022-12-17T02:52:55.639Z,101182.06
2022-12-17T02:57:58.183Z,101188.56
2022-12-17T03:02:59.685Z,101186.13
2022-12-17T03:08:01.165Z,101189.47
2022-12-17T03:13:02.856Z,101187.47
2022-12-17T03:18:04.321Z,101201.06
2022-12-17T03:23:08.867Z,101203.59
2022-12-17T03:28:11.972Z,101206.44
2022-12-17T03:33:13.567Z,101208.97
2022-12-17T03:38:15.024Z,101210.75
2022-12-17T03:43:16.672Z,101209.91
2022-12-17T03:48:18.328Z,101219.91
2022-12-17T03:53:19.964Z,101213.47
2022-12-17T03:58:21.524Z,101223.16
2022-12-17T04:03:23.116Z,101224.09
2022-12-17T04:08:24.875Z,101223.59
2022-12-17T04:13:26.383Z,101228.75
2022-12-17T04:18:27.944Z,101224.88
2022-12-17T04:23:29.497Z,101243.47
2022-12-17T04:28:31.141Z,101238.00
2022-12-17T04:33:32.798Z,101252.06
2022-12-17T04:38:34.544Z,101253.91
2022-12-17T04:43:36.313Z,101274.53
2022-12-17T04:48:38.169Z,101268.78
2022-12-17T04:53:39.776Z,101275.19
2022-12-17T04:58:41.410Z,101281.31
2022-12-17T05:03:42.926Z,101280.25
2022-12-17T05:08:44.825Z,101279.25
2022-12-17T05:13:46.556Z,101286.13
2022-12-17T05:18:48.210Z,101293.91
2022-12-17T05:23:49.753Z,101296.34
2022-12-17T05:28:51.884Z,101298.97
2022-12-17T05:33:53.354Z,101299.59
2022-12-17T05:38:54.870Z,101304.97
2022-12-17T05:43:56.350Z,101306.72
2022-12-17T05:48:57.974Z,101308.34
2022-12-17T05:53:59.536Z,101308.84
2022-12-17T05:59:01.106Z,101312.34
2022-12-17T06:04:03.107Z,101323.09
2022-12-17T06:09:04.628Z,101326.63
2022-12-17T06:14:06.130Z,101336.47
2022-12-17T06:19:07.691Z,101346.94
2022-12-17T06:24:09.248Z,101351.44
2022-12-17T06:29:10.808Z,101350.72
2022-12-17T06:34:12.360Z,101356.06
2022-12-17T06:39:13.860Z,101375.94
2022-12-17T06:44:15.427Z,101374.22
2022-12-17T06:49:17.008Z,101371.56
2022-12-17T06:54:18.497Z,101375.22
2022-12-17T06:59:20.068Z,101377.31
2022-12-17T07:04:21.476Z,101388.88
2022-12-17T07:09:22.988Z,101394.66
2022-12-17T07:14:24.756Z,101422.56
2022-12-17T07:19:27.597Z,101424.38
2022-12-17T07:24:29.403Z,101429.47
2022-12-17T07:29:30.936Z,101429.72
2022-12-17T07:34:32.427Z,101438.75
2022-12-17T07:39:33.908Z,101444.31
2022-12-17T07:44:35.529Z,101446.94
2022-12-17T07:49:36.968Z,101453.09
2022-12-17T07:54:38.711Z,101463.09
2022-12-17T07:59:40.265Z,101465.50
2022-12-17T08:04:41.906Z,101465.19
2022-12-17T08:09:43.381Z,101467.72
2022-12-17T08:14:44.954Z,101480.28
2022-12-17T08:19:46.464Z,101490.56
2022-12-17T08:24:47.971Z,101489.91
2022-12-17T08:29:49.702Z,101483.06
2022-12-17T08:34:51.221Z,101501.72
2022-12-17T08:39:52.689Z,101503.34
2022-12-17T08:44:54.154Z,101505.78
2022-12-17T08:49:55.610Z,101507.03
2022-12-17T08:54:57.126Z,101500.41
2022-12-17T08:59:58.743Z,101520.09
2022-12-17T09:05:00.313Z,101518.41
2022-12-17T09:10:01.824Z,101518.38
2022-12-17T09:15:03.654Z,101519.94
2022-12-17T09:20:05.644Z,101521.56
2022-12-17T09:25:07.578Z,101527.91
2022-12-17T09:30:09.692Z,101536.16
2022-12-17T09:35:11.288Z,101536.88
2022-12-17T09:40:20.879Z,101542.16
2022-12-17T09:45:31.611Z,101545.78
2022-12-17T09:50:33.843Z,101543.00
2022-12-17T09:55:46.101Z,101535.38
2022-12-17T10:01:00.862Z,101547.44
2022-12-17T10:06:25.387Z,101551.00
2022-12-17T10:11:34.164Z,101550.81
2022-12-17T10:16:45.765Z,101558.44
2022-12-17T10:21:47.227Z,101553.88
2022-12-17T10:26:49.185Z,101559.69
2022-12-17T10:31:51.031Z,101566.97
2022-12-17T10:36:53.682Z,101567.75
2022-12-17T11:25:48.156Z,101574.88
2022-12-17T11:30:58.290Z,101575.44
2022-12-17T11:36:11.276Z,101579.78
2022-12-17T11:41:12.640Z,101569.97
2022-12-17T11:46:26.253Z,101568.25
2022-12-17T11:51:32.777Z,101575.50
2022-12-17T11:56:58.728Z,101577.31
2022-12-17T12:02:24.543Z,101573.84
2022-12-17T12:07:42.572Z,101576.00
2022-12-17T12:13:04.218Z,101576.97
2022-12-17T12:18:09.958Z,101566.56
2022-12-17T12:23:30.467Z,101569.38
2022-12-17T12:28:52.539Z,101566.56
2022-12-17T12:34:00.576Z,101567.22
2022-12-17T12:39:01.998Z,101570.00
2022-12-17T12:44:18.401Z,101564.81
2022-12-17T12:49:28.968Z,101549.13
2022-12-17T12:54:33.092Z,101548.19
2022-12-17T12:59:35.256Z,101546.19
2022-12-17T13:04:36.964Z,101557.47
2022-12-17T13:09:49.653Z,101543.31
2022-12-17T13:15:06.286Z,101540.97
2022-12-17T13:20:30.463Z,101533.22
2022-12-17T13:25:31.991Z,101525.38
2022-12-17T13:30:37.926Z,101517.50
2022-12-17T13:35:43.258Z,101520.19
2022-12-17T13:41:17.067Z,101525.19
2022-12-17T13:46:24.898Z,101527.97
2022-12-17T13:51:30.399Z,101525.25
2022-12-17T13:56:35.941Z,101525.38
2022-12-17T14:01:46.610Z,101522.94
2022-12-17T14:06:48.418Z,101524.81
2022-12-17T14:11:51.700Z,101528.22
2022-12-17T14:16:53.351Z,101540.38
2022-12-17T14:21:55.980Z,101548.97
2022-12-17T14:26:59.836Z,101549.88
2022-12-17T14:32:03.005Z,101549.97
2022-12-17T14:37:04.514Z,101564.66
2022-12-17T14:42:17.032Z,101562.19
2022-12-17T14:47:20.068Z,101567.38
2022-12-17T14:52:35.248Z,101564.06
2022-12-17T14:57:36.745Z,101569.22
2022-12-17T15:02:38.390Z,101566.00
2022-12-17T15:07:40.484Z,101576.28
2022-12-17T15:12:42.769Z,101577.25
2022-12-17T15:17:44.620Z,101584.16
2022-12-17T15:22:47.116Z,101589.47
2022-12-17T15:27:48.625Z,101588.63
2022-12-17T15:32:50.062Z,101597.38
2022-12-17T15:37:51.566Z,101593.91
2022-12-17T15:42:53.038Z,101603.38
2022-12-17T15:47:54.540Z,101602.56
2022-12-17T15:52:55.971Z,101613.81
2022-12-17T15:57:57.881Z,101613.78
2022-12-17T16:03:02.301Z,101620.81
2022-12-17T16:08:03.847Z,101625.16
2022-12-17T16:13:05.348Z,101631.19
2022-12-17T16:18:06.828Z,101640.81
2022-12-17T16:23:08.397Z,101645.06
2022-12-17T16:28:09.970Z,101646.88
2022-12-17T16:33:11.463Z,101640.81
2022-12-17T16:38:13.018Z,101648.50
2022-12-17T16:43:14.550Z,101648.66
2022-12-17T16:48:16.995Z,101658.06
2022-12-17T16:53:19.516Z,101655.44
2022-12-17T16:58:21.002Z,101659.78
2022-12-17T17:03:22.717Z,101663.25
2022-12-17T17:08:24.336Z,101664.09
2022-12-17T17:13:25.827Z,101661.53
2022-12-17T17:18:27.351Z,101673.56
2022-12-17T17:23:28.852Z,101673.56
2022-12-17T17:28:30.318Z,101672.72
2022-12-17T17:33:33.898Z,101670.13
2022-12-17T17:38:38.002Z,101668.41
2022-12-17T17:43:39.882Z,101680.47
2022-12-17T17:48:42.516Z,101681.31
2022-12-17T17:53:45.552Z,101684.75
2022-12-17T17:58:49.624Z,101684.75
2022-12-17T18:03:51.774Z,101682.16
2022-12-17T18:08:56.783Z,101681.31
2022-12-17T18:13:59.812Z,101679.56
2022-12-17T18:19:10.348Z,101694.13
2022-12-17T18:24:13.157Z,101699.31
2022-12-17T18:29:23.886Z,101699.31
2022-12-17T18:34:25.411Z,101707.88
2022-12-17T18:39:26.885Z,101705.31
2022-12-17T18:44:29.928Z,101706.19
2022-12-17T18:49:31.405Z,101706.22
2022-12-17T18:54:33.120Z,101720.78
2022-12-17T18:59:34.742Z,101713.88
2022-12-17T19:04:37.993Z,101718.19
2022-12-17T19:09:39.528Z,101715.59
2022-12-17T19:14:41.121Z,101727.59
2022-12-17T19:19:42.530Z,101719.81
2022-12-17T19:24:44.037Z,101721.56
2022-12-17T19:29:49.436Z,101719.91
2022-12-17T19:34:51.568Z,101719.09
2022-12-17T19:39:53.024Z,101720.72
2022-12-17T19:44:55.009Z,101731.88
2022-12-17T19:49:56.726Z,101736.16
2022-12-17T19:54:58.279Z,101741.31
2022-12-17T19:59:59.702Z,101747.41
2022-12-17T20:05:01.399Z,101757.66
2022-12-17T20:10:03.119Z,101756.66
2022-12-17T20:15:05.124Z,101751.53
2022-12-17T20:20:07.180Z,101758.38
2022-12-17T20:25:08.859Z,101766.13
2022-12-17T20:30:10.676Z,101761.91
2022-12-17T20:35:12.179Z,101768.72
2022-12-17T20:40:13.677Z,101767.03
2022-12-17T20:45:16.067Z,101772.16
2022-12-17T20:50:17.669Z,101779.94
2022-12-17T20:55:19.465Z,101779.88
2022-12-17T21:00:20.902Z,101797.00
2022-12-17T21:05:23.201Z,101793.50
2022-12-17T21:10:24.650Z,101787.53
2022-12-17T21:15:27.567Z,101796.94
2022-12-17T21:20:29.021Z,101801.19
2022-12-17T21:25:31.013Z,101790.84
2022-12-17T21:30:36.680Z,101799.28
2022-12-17T21:35:38.152Z,101801.09
2022-12-17T21:40:39.655Z,101801.97
2022-12-17T21:45:41.681Z,101789.84
2022-12-17T21:50:45.203Z,101790.75
2022-12-17T21:55:47.884Z,101795.03
2022-12-17T22:00:49.753Z,101802.91
2022-12-17T22:05:51.229Z,101795.03
2022-12-17T22:10:52.946Z,101795.03
2022-12-17T22:15:55.524Z,101795.94
2022-12-17T22:20:59.324Z,101797.66
2022-12-17T22:26:01.057Z,101801.78
2022-12-17T22:31:06.774Z,101801.81
2022-12-17T22:37:36.249Z,101800.25
2022-12-17T22:44:35.015Z,101809.34
2022-12-17T22:46:52.983Z,101813.63
2022-12-17T22:51:54.545Z,101810.31
2022-12-17T22:57:34.739Z,101816.16
2022-12-17T23:02:17.570Z,101836.81
2022-12-17T23:07:19.383Z,101816.38
2022-12-17T23:12:20.881Z,101823.16
2022-12-17T23:17:22.312Z,101833.50
2022-12-17T23:22:23.791Z,101823.97
2022-12-17T23:27:25.360Z,101825.84
2022-12-17T23:32:26.865Z,101823.09
2022-12-17T23:37:28.423Z,101829.13
2022-12-17T23:42:30.034Z,101821.50
2022-12-17T23:47:31.910Z,101816.31
2022-12-17T23:52:33.735Z,101810.53
2022-12-17T23:57:35.189Z,101800.88
